Forside
METAR-TAF:

METAR-TAF

Lufthavne :

Wausau, Wisconsin, USA

Breddekreds: 44-55-43N, længdekreds: 089-37-36W, højde: 366 m

Aktuelle vejr

Denne rapport blev lavet for 20 minutter siden, kl. 15:54 UTC
Vind 9 kt fra vestnordvest
Temperatur 24°C
Fugtighed 57%
Tryk 1019 hPa
Sigt: 8.0 km
skyfri
tåge/dis

METAR: KAUW 031554Z AUTO 29009KT 5SM HZ CLR 24/15 A3009 RMK AO2 SLP189 T02440150

Tid: 11:14 (16:14 UTC)

Vejrudsigter

Denne rapport blev lavet for 15 minutter siden, kl. 15:59 UTC
Foreløbig gælder fra 03 på 16 UTC til 04 på 12 UTC
Vind 6 kt fra vest
Sigt: 9.7 km
Spredte skyer i en højde af 7000 ft
tåge/dis
Fra 04 på 0100 UTC
Vind 3 kt fra vestsydvest
Sigt: 10 km
skyfri

TAF: KAUW 031559Z 0316/0412 27006KT 6SM HZ SCT070 FM040100 24003KT P6SM SKC

Vejrobservationer og prognoser fra mere end 4000 lufthavne (METAR og TAF).

De gule og røde prikker repræsenterer de meteorologiske stationer.

Flyt musen over at se navnet på stationen.

Så klik over at se vejr observationer og prognoser.

At skifte det kort: Klik på de grønne knapper med et sort kors for at zoome ind; på den grønne knap med en bindestreg for at zoome ud; eller på de grønne pile for tilstødende kort.


METAR-TAF: